• Join FlightAware (Why Join?)
  • Login
  • US Flag 
08:21AM EST


 

Airport Tracker/Info


-or-


 

Live Flight TrackerFlight Track Log ✈ ASA125 ✈ 24-Apr-2013 ✈ KSEA - PAFA / FAI

Flight Track Log - Related Links

Times and Time Zones

All times are in EDT time to prevent confusion due to time zone crossing. See the ASA125 flight status page for this flight to view local times or setup timezone preferences in your user account.

Time Position Orientation Groundspeed Altitude Reporting Facility
EDT Latitude Longitude Course Direction KTS MPH feet Rate Location/Type
02:12AM 47.4636 -122.3078 360° North 151 174 1,500  Level Seattle Center
02:13AM 47.4878 -122.3075 360° North 158 182 2,000 1,620 Climbing Seattle Center
02:14AM 47.5503 -122.3111 358° North 214 246 4,100 2,220 Climbing Seattle Center
02:15AM 47.6022 -122.3797 318° Northwest 257 296 6,500 2,520 Climbing Seattle Center
02:16AM 47.6481 -122.4578 311° West 256 295 9,300 2,520 Climbing Seattle Center
02:17AM 47.7236 -122.4586 360° North 274 315 11,600 2,400 Climbing Seattle Center
02:18AM 47.7911 -122.5089 333° Northwest 304 350 14,200 2,280 Climbing Seattle Center
02:19AM 47.8292 -122.6314 295° West 332 382 16,200 2,220 Climbing Seattle Center
02:20AM 47.8728 -122.7642 296° West 357 411 18,700 2,520 Climbing Seattle Center
02:21AM 47.9175 -122.9003 296° West 370 426 21,300 2,400 Climbing Seattle Center
02:22AM 47.9806 -123.0194 308° West 372 428 23,600 2,820 Climbing Seattle Center
02:23AM 48.0631 -123.1094 324° Northwest 370 426 27,000 2,760 Climbing Seattle Center
02:24AM 48.1378 -123.1928 323° Northwest 347 399 29,200 1,920 Climbing Seattle Center
02:25AM 48.2000 -123.2667 322° Northwest 340 391 30,700 1,560 Climbing Vancouver Center
02:26AM 48.2667 -123.3500 320° Northwest 350 403 32,200 1,620 Climbing Vancouver Center
02:27AM 48.3500 -123.4500 321° Northwest 350 403 34,000 1,800 Climbing Vancouver Center
02:28AM 48.4333 -123.5167 332° Northwest 340 391 35,900 1,320 Climbing Vancouver Center
02:29AM 48.5000 -123.6167 315° West 340 391 36,700 720 Climbing Vancouver Center
02:30AM 48.5833 -123.7000 327° Northwest 340 391 37,400 600 Climbing Vancouver Center
02:31AM 48.6667 -123.8000 322° Northwest 350 403 38,000 300 Climbing Vancouver Center
02:32AM 48.7333 -123.8833 321° Northwest 360 414 38,000  Level Vancouver Center
02:33AM 48.8167 -123.9833 322° Northwest 360 414 38,000  Level Vancouver Center
02:34AM 48.9000 -124.0500 332° Northwest 360 414 38,000  Level Vancouver Center
02:35AM 48.9833 -124.1500 322° Northwest 360 414 38,000  Level Vancouver Center
02:36AM 49.0500 -124.2333 321° Northwest 350 403 38,000  Level Vancouver Center
02:37AM 49.1333 -124.3333 322° Northwest 350 403 38,000  Level Vancouver Center
02:38AM 49.2167 -124.4167 327° Northwest 350 403 38,000  Level Vancouver Center
02:39AM 49.2833 -124.5167 316° Northwest 350 403 38,000  Level Vancouver Center
02:40AM 49.3667 -124.6000 327° Northwest 350 403 38,000  Level Vancouver Center
02:41AM 49.4500 -124.7000 322° Northwest 340 391 38,000  Level Vancouver Center
02:42AM 49.5167 -124.7833 321° Northwest 340 391 38,000  Level Vancouver Center
02:43AM 49.6000 -124.8500 333° Northwest 340 391 38,000  Level Vancouver Center
02:44AM 49.6833 -124.9667 318° Northwest 340 391 38,000  Level Vancouver Center
02:45AM 49.7500 -125.0333 327° Northwest 340 391 38,000  Level Vancouver Center
02:46AM 49.8333 -125.1500 318° Northwest 340 391 38,000  Level Vancouver Center
02:47AM 49.9000 -125.2167 327° Northwest 340 391 38,000  Level Vancouver Center
02:48AM 49.9833 -125.3333 318° Northwest 340 391 38,000  Level Vancouver Center
02:49AM 50.0500 -125.4167 321° Northwest 340 391 38,000  Level Vancouver Center
02:50AM 50.1333 -125.4833 333° Northwest 350 403 38,000  Level Vancouver Center
02:51AM 50.2167 -125.6000 318° Northwest 340 391 38,000  Level Vancouver Center
02:52AM 50.2833 -125.6833 321° Northwest 350 403 38,000  Level Vancouver Center
02:53AM 50.3500 -125.7833 316° Northwest 340 391 38,000  Level Vancouver Center
02:54AM 50.4167 -125.8667 321° Northwest 350 403 38,000  Level Vancouver Center
02:55AM 50.5000 -125.9833 318° Northwest 350 403 38,000  Level Vancouver Center
02:56AM 50.5833 -126.0667 328° Northwest 350 403 38,000  Level Vancouver Center
02:57AM 50.6500 -126.1500 322° Northwest 340 391 38,000  Level Vancouver Center
02:58AM 50.7333 -126.2500 323° Northwest 340 391 38,000  Level Vancouver Center
02:59AM 50.8167 -126.3333 328° Northwest 340 391 38,000  Level Vancouver Center
03:00AM 50.8833 -126.4500 312° West 340 391 38,000  Level Vancouver Center
03:01AM 50.9667 -126.5333 328° Northwest 340 391 38,000  Level Vancouver Center
03:02AM 51.0167 -126.6167 314° West 340 391 38,000  Level Vancouver Center
03:03AM 51.1000 -126.7167 323° Northwest 350 403 38,000  Level Vancouver Center
03:04AM 51.1833 -126.8167 323° Northwest 350 403 38,000  Level Vancouver Center
03:05AM 51.2500 -126.9167 317° Northwest 350 403 38,000  Level Vancouver Center
03:06AM 51.3333 -127.0000 328° Northwest 350 403 38,000  Level Vancouver Center
03:07AM 51.4000 -127.1167 313° West 350 403 38,000  Level Vancouver Center
03:08AM 51.4833 -127.2000 328° Northwest 350 403 38,000  Level Vancouver Center
03:09AM 51.5500 -127.2833 322° Northwest 350 403 38,000  Level Vancouver Center
03:10AM 51.6333 -127.4000 319° Northwest 350 403 38,000  Level Vancouver Center
03:11AM 51.7000 -127.4833 322° Northwest 350 403 38,000  Level Vancouver Center
03:12AM 51.7833 -127.6000 319° Northwest 340 391 38,000  Level Vancouver Center
03:13AM 51.8500 -127.6833 322° Northwest 340 391 38,000  Level Vancouver Center
03:14AM 51.9333 -127.8000 319° Northwest 340 391 38,000  Level Vancouver Center
03:15AM 52.0000 -127.9000 317° Northwest 340 391 38,000  Level Vancouver Center
03:16AM 52.0667 -127.9833 322° Northwest 350 403 38,000  Level Vancouver Center
03:17AM 52.1500 -128.1000 319° Northwest 350 403 38,000  Level Vancouver Center
03:18AM 52.2333 -128.1833 329° Northwest 350 403 38,000  Level Vancouver Center
03:19AM 52.3167 -128.2833 324° Northwest 360 414 38,000  Level Vancouver Center
03:20AM 52.3833 -128.3667 323° Northwest 350 403 38,000  Level Vancouver Center
03:21AM 52.4667 -128.4667 324° Northwest 350 403 38,000  Level Vancouver Center
03:22AM 52.5500 -128.5500 329° Northwest 360 414 38,000  Level Vancouver Center
03:23AM 52.6333 -128.6333 329° Northwest 350 403 38,000  Level Vancouver Center
03:24AM 52.7333 -128.7333 329° Northwest 370 426 38,000  Level Vancouver Center
03:25AM 52.8000 -128.8333 318° Northwest 360 414 38,000  Level Vancouver Center
03:26AM 52.8833 -128.9167 329° Northwest 360 414 38,000  Level Vancouver Center
03:27AM 52.9833 -129.0167 329° Northwest 370 426 38,000  Level Vancouver Center
03:28AM 53.0667 -129.1000 329° Northwest 360 414 38,000  Level Vancouver Center
03:29AM 53.1500 -129.2000 324° Northwest 370 426 38,000  Level Vancouver Center
03:30AM 53.2167 -129.3000 318° Northwest 370 426 38,000  Level Vancouver Center
03:31AM 53.3000 -129.3833 329° Northwest 360 414 38,000  Level Vancouver Center
03:32AM 53.4000 -129.4833 329° Northwest 360 414 38,000  Level Vancouver Center
03:33AM 53.4833 -129.5833 324° Northwest 360 414 38,000  Level Vancouver Center
03:34AM 53.5500 -129.6667 323° Northwest 360 414 38,000  Level Vancouver Center
03:35AM 53.6333 -129.7667 325° Northwest 360 414 38,000  Level Vancouver Center
03:36AM 53.7333 -129.8667 329° Northwest 370 426 38,000  Level Vancouver Center
03:37AM 53.8000 -129.9667 318° Northwest 370 426 38,000  Level Vancouver Center
03:38AM 53.8833 -130.0667 325° Northwest 380 437 38,000  Level Vancouver Center
03:39AM 53.9833 -130.1667 330° Northwest 370 426 38,000  Level Vancouver Center
03:40AM 54.0667 -130.2500 330° Northwest 370 426 38,000  Level Vancouver Center
03:41AM 54.1333 -130.3500 319° Northwest 370 426 38,000  Level Vancouver Center
03:42AM 54.2167 -130.4500 325° Northwest 370 426 38,000  Level Vancouver Center
03:43AM 54.3167 -130.5833 322° Northwest 380 437 38,000  Level Vancouver Center
03:44AM 54.3833 -130.6833 319° Northwest 370 426 38,000  Level Vancouver Center
03:45AM 54.4833 -130.7833 330° Northwest 370 426 38,000  Level Vancouver Center
03:46AM 54.5667 -130.8833 325° Northwest 370 426 38,000  Level Vancouver Center
03:47AM 54.6500 -130.9833 325° Northwest 370 426 38,000  Level Vancouver Center
03:47AM 54.6833 -130.9833 360° North 380 437 38,000  Level Anchorage Center
03:48AM 54.7667 -131.0833 325° Northwest 370 426 38,000  Level Anchorage Center
03:49AM 54.8333 -131.1833 319° Northwest 370 426 38,000  Level Vancouver Center
03:50AM 54.9000 -131.2833 319° Northwest 370 426 38,000  Level Vancouver Center
03:50AM 54.9333 -131.2833 360° North 370 426 38,000  Level Anchorage Center
03:51AM 55.0167 -131.4000 321° Northwest 370 426 38,000  Level Anchorage Center
03:52AM 55.1000 -131.5000 326° Northwest 380 437 38,000  Level Anchorage Center
03:53AM 55.1833 -131.6167 321° Northwest 380 437 38,000  Level Anchorage Center
03:54AM 55.2667 -131.7167 326° Northwest 380 437 38,000  Level Anchorage Center
03:55AM 55.3667 -131.8333 326° Northwest 370 426 38,000  Level Anchorage Center
03:56AM 55.4333 -131.9333 320° Northwest 370 426 38,000  Level Anchorage Center
03:57AM 55.5167 -132.0333 326° Northwest 360 414 38,000  Level Anchorage Center
03:58AM 55.6000 -132.1500 322° Northwest 370 426 38,000  Level Anchorage Center
03:59AM 55.7000 -132.2500 331° Northwest 380 437 38,000  Level Anchorage Center
04:00AM 55.7833 -132.3500 326° Northwest 370 426 38,000  Level Anchorage Center
04:01AM 55.8667 -132.4500 326° Northwest 380 437 38,000  Level Anchorage Center
04:02AM 55.9667 -132.5500 331° Northwest 380 437 38,000  Level Anchorage Center
04:03AM 56.0500 -132.6500 326° Northwest 370 426 38,000  Level Anchorage Center
04:04AM 56.1333 -132.7500 326° Northwest 370 426 38,000  Level Anchorage Center
04:05AM 56.2167 -132.8500 326° Northwest 370 426 38,000  Level Anchorage Center
04:06AM 56.3167 -132.9500 331° Northwest 370 426 38,000  Level Anchorage Center
04:07AM 56.4000 -133.0500 326° Northwest 380 437 38,000  Level Anchorage Center
04:08AM 56.4833 -133.1500 326° Northwest 380 437 38,000  Level Anchorage Center
04:09AM 56.5667 -133.2500 327° Northwest 360 414 38,000  Level Anchorage Center
04:10AM 56.6500 -133.3500 327° Northwest 370 426 38,000  Level Anchorage Center
04:11AM 56.7333 -133.4667 322° Northwest 360 414 38,000  Level Anchorage Center
04:12AM 56.8333 -133.5667 331° Northwest 360 414 38,000  Level Anchorage Center
04:13AM 56.9167 -133.6667 327° Northwest 370 426 38,000  Level Anchorage Center
04:14AM 57.0000 -133.7667 327° Northwest 370 426 38,000  Level Anchorage Center
04:15AM 57.0833 -133.8667 327° Northwest 360 414 38,000  Level Anchorage Center
04:16AM 57.1667 -133.9667 327° Northwest 360 414 38,000  Level Anchorage Center
04:17AM 57.2500 -134.0833 323° Northwest 370 426 38,000  Level Anchorage Center
04:18AM 57.3333 -134.1833 327° Northwest 370 426 38,000  Level Anchorage Center
04:19AM 57.4167 -134.3000 323° Northwest 370 426 38,000  Level Anchorage Center
04:20AM 57.5167 -134.4000 332° Northwest 370 426 38,000  Level Anchorage Center
04:21AM 57.6000 -134.5000 327° Northwest 380 437 38,000  Level Anchorage Center
04:22AM 57.6833 -134.6167 323° Northwest 370 426 38,000  Level Anchorage Center
04:23AM 57.7667 -134.7333 323° Northwest 380 437 38,000  Level Anchorage Center
04:24AM 57.8500 -134.8333 327° Northwest 380 437 38,000  Level Anchorage Center
04:25AM 57.9333 -134.9500 323° Northwest 380 437 38,000  Level Anchorage Center
04:26AM 58.0333 -135.0667 328° Northwest 390 449 38,000  Level Anchorage Center
04:27AM 58.1167 -135.1667 328° Northwest 380 437 38,000  Level Anchorage Center
04:28AM 58.2000 -135.2833 324° Northwest 390 449 38,000  Level Anchorage Center
04:29AM 58.3000 -135.3833 332° Northwest 390 449 38,000  Level Anchorage Center
04:30AM 58.3833 -135.4833 328° Northwest 380 437 38,000  Level Anchorage Center
04:31AM 58.4833 -135.5833 332° Northwest 390 449 38,000  Level Anchorage Center
04:32AM 58.5833 -135.6833 332° Northwest 380 437 38,000  Level Anchorage Center
04:33AM 58.6667 -135.7833 328° Northwest 380 437 38,000  Level Anchorage Center
04:34AM 58.7667 -135.9000 329° Northwest 390 449 38,000  Level Anchorage Center
04:35AM 58.8500 -135.9833 333° Northwest 390 449 38,000  Level Anchorage Center
04:36AM 58.9500 -136.1000 329° Northwest 400 460 38,000 360 Level Anchorage Center
04:37AM 59.0500 -136.2000 333° Northwest 390 449 38,800 840 Climbing Anchorage Center
04:38AM 59.1333 -136.3000 328° Northwest 400 460 39,700 540 Climbing Anchorage Center
04:39AM 59.2333 -136.4167 329° Northwest 390 449 40,000 120 Climbing Anchorage Center
04:40AM 59.3333 -136.5167 333° Northwest 400 460 40,000  Level Anchorage Center
04:41AM 59.4333 -136.6333 329° Northwest 410 472 40,000  Level Anchorage Center
04:42AM 59.5167 -136.7500 325° Northwest 410 472 40,000  Level Anchorage Center
04:43AM 59.6167 -136.8500 333° Northwest 400 460 40,000  Level Anchorage Center
04:44AM 59.7167 -136.9667 330° Northwest 400 460 40,000  Level Anchorage Center
04:45AM 59.8167 -137.0833 330° Northwest 400 460 40,000  Level Anchorage Center
04:46AM 59.9000 -137.2000 325° Northwest 400 460 40,000  Level Anchorage Center
04:47AM 60.0000 -137.3167 330° Northwest 400 460 40,000  Level Anchorage Center
04:48AM 60.1000 -137.4333 330° Northwest 400 460 40,000  Level Anchorage Center
04:49AM 60.2000 -137.5333 334° Northwest 400 460 40,000  Level Anchorage Center
04:50AM 60.2833 -137.6500 325° Northwest 400 460 40,000  Level Anchorage Center
04:51AM 60.3833 -137.7667 330° Northwest 400 460 40,000  Level Anchorage Center
04:52AM 60.4833 -137.8833 330° Northwest 400 460 40,000  Level Anchorage Center
04:53AM 60.5667 -138.0167 322° Northwest 400 460 40,000  Level Anchorage Center
04:54AM 60.6667 -138.1333 330° Northwest 400 460 40,000  Level Anchorage Center
04:55AM 60.7667 -138.2500 330° Northwest 400 460 40,000  Level Anchorage Center
04:56AM 60.8667 -138.3667 330° Northwest 400 460 40,000  Level Anchorage Center
04:57AM 60.9500 -138.4833 326° Northwest 410 472 40,000  Level Anchorage Center
04:58AM 61.0500 -138.6167 327° Northwest 410 472 40,000  Level Anchorage Center
04:59AM 61.1500 -138.7333 331° Northwest 410 472 40,000  Level Anchorage Center
05:00AM 61.2500 -138.8667 327° Northwest 400 460 40,000  Level Anchorage Center
05:01AM 61.3333 -139.0000 323° Northwest 410 472 40,000  Level Anchorage Center
05:02AM 61.4167 -139.1333 323° Northwest 390 449 40,000  Level Anchorage Center
05:03AM 61.5167 -139.2833 324° Northwest 410 472 40,000  Level Anchorage Center
05:04AM 61.6000 -139.4333 319° Northwest 400 460 40,000  Level Anchorage Center
05:07AM 61.8333 -139.8500 320° Northwest 430 495 40,000  Level Anchorage Center
05:09AM 61.9577 -140.0707 320° Northwest  Level FlightAware Approximate
05:16AM 62.4974 -141.0580 319° Northwest  Level FlightAware Approximate
05:16AM 62.5833 -141.2333 318° Northwest 470 541 40,000  Level Anchorage Center
05:17AM 62.5736 -141.2027 319° Northwest  Level FlightAware Approximate
05:17AM 62.6667 -141.3833 320° Northwest 410 472 40,000  Level Anchorage Center
05:18AM 62.6496 -141.3482 319° Northwest  Level FlightAware Approximate
05:18AM 62.7500 -141.5500 318° Northwest 400 460 40,000  Level Anchorage Center
05:19AM 62.7256 -141.4944 319° Northwest  Level FlightAware Approximate
05:19AM 62.8333 -141.6833 324° Northwest 410 472 40,000  Level Anchorage Center
05:20AM 62.8013 -141.6414 318° Northwest  Level FlightAware Approximate
05:21AM 62.8769 -141.7891 318° Northwest  Level FlightAware Approximate
05:21AM 62.9701 -142.0043 308° West  Level FlightAware Approximate
05:26AM 63.3500 -143.1000 307° West 440 506 40,000  Level Anchorage Center
05:27AM 63.4167 -143.3000 307° West 410 472 40,000  Level Anchorage Center
05:28AM 63.3938 -143.2616 306° West  Level FlightAware Approximate
05:28AM 63.4833 -143.5167 305° West 420 483 40,000  Level Anchorage Center
05:29AM 63.4526 -143.4454 306° West  Level FlightAware Approximate
05:29AM 63.5500 -143.7167 307° West 410 472 40,000  Level Anchorage Center
05:30AM 63.5112 -143.6301 306° West  Level FlightAware Approximate
05:30AM 63.6167 -143.9167 307° West 420 483 40,000  Level Anchorage Center
05:31AM 63.5711 -143.8131 307° West  Level FlightAware Approximate
05:31AM 63.7000 -144.1167 313° West 410 472 40,000  Level Anchorage Center
05:32AM 63.7667 -144.3000 309° West 420 483 40,000  Level Anchorage Center
05:33AM 63.8500 -144.5167 311° West 420 483 40,000  Level Anchorage Center
05:34AM 63.9167 -144.7167 307° West 420 483 40,000 -660 Level Anchorage Center
05:35AM 64.0000 -144.9167 314° West 400 460 38,700 -2,160 Descending Anchorage Center
05:36AM 64.0667 -145.1333 305° West 410 472 35,700 -3,180 Descending Anchorage Center
05:37AM 64.1333 -145.3333 307° West 420 483 32,400 -3,600 Descending Anchorage Center
05:38AM 64.2000 -145.5667 303° West 420 483 28,500 -3,360 Descending Anchorage Center
05:39AM 64.2500 -145.8167 295° West 430 495 25,700 -3,000 Descending Anchorage Center
05:40AM 64.3167 -146.0500 303° West 410 472 22,500 -3,240 Descending Anchorage Center
05:42AM 64.3677 -146.4940 285° West  Level FlightAware Approximate
05:49AM 64.7982 -147.8035 308° West  Level Estimated
05:50AM 64.7859 -147.8782 40° Northeast  Level FlightAware Approximate
05:51AM 64.8000 -147.8500 40° Northeast  Level FlightAware Approximate
05:52AM 64.8151 -147.8564 40° Northeast  Level Estimated
05:53AM 64.8151 -147.8564 40° Northeast  Level Estimated
05:54AM 64.8151 -147.8564 40° Northeast  Level Estimated
05:55AM 64.8151 -147.8564 40° Northeast  Level Estimated
05:56AM 64.8151 -147.8564 40° Northeast  Level Estimated
05:57AM 64.8151 -147.8564 40° Northeast  Level Estimated
05:58AM 64.8151 -147.8564 40° Northeast  Level Estimated
05:59AM 64.8151 -147.8564 40° Northeast  Level Estimated
06:00AM 64.8151 -147.8564 40° Northeast  Level Estimated
06:01AM 64.8151 -147.8564 40° Northeast  Level Estimated
06:02AM 64.8151 -147.8564 40° Northeast  Level Estimated
06:03AM 64.8151 -147.8564 40° Northeast  Level Estimated
06:04AM 64.8151 -147.8564 40° Northeast  Level Estimated
06:05AM 64.8151 -147.8564 40° Northeast  Level Estimated
06:06AM 64.8151 -147.8564 40° Northeast  Level Estimated